sensor_id;sensor_type;location;lat;lon;timestamp;P1;durP1;ratioP1;P2;durP2;ratioP2
79644;SDS011;69117;47.148;18.954;2024-03-22T00:02:22;16.55;;;6.22;;
79644;SDS011;69117;47.148;18.954;2024-03-22T00:05:22;18.05;;;7.57;;
79644;SDS011;69117;47.148;18.954;2024-03-22T00:08:23;15.77;;;8.90;;
79644;SDS011;69117;47.148;18.954;2024-03-22T00:11:26;14.68;;;6.10;;
79644;SDS011;69117;47.148;18.954;2024-03-22T00:14:27;14.73;;;7.97;;
79644;SDS011;69117;47.148;18.954;2024-03-22T00:17:28;17.17;;;6.22;;
79644;SDS011;69117;47.148;18.954;2024-03-22T00:20:28;12.30;;;5.50;;
79644;SDS011;69117;47.148;18.954;2024-03-22T00:23:29;14.70;;;6.22;;
79644;SDS011;69117;47.148;18.954;2024-03-22T00:26:30;12.75;;;5.57;;
79644;SDS011;69117;47.148;18.954;2024-03-22T00:29:31;15.32;;;6.97;;
79644;SDS011;69117;47.148;18.954;2024-03-22T00:32:32;16.92;;;7.10;;
79644;SDS011;69117;47.148;18.954;2024-03-22T00:35:33;11.00;;;5.63;;
79644;SDS011;69117;47.148;18.954;2024-03-22T00:38:33;15.48;;;5.22;;
79644;SDS011;69117;47.148;18.954;2024-03-22T00:41:34;18.02;;;7.28;;
79644;SDS011;69117;47.148;18.954;2024-03-22T00:44:35;13.98;;;6.40;;
79644;SDS011;69117;47.148;18.954;2024-03-22T00:47:35;12.05;;;6.43;;
79644;SDS011;69117;47.148;18.954;2024-03-22T00:50:36;13.85;;;6.60;;
79644;SDS011;69117;47.148;18.954;2024-03-22T00:53:37;15.88;;;5.85;;
79644;SDS011;69117;47.148;18.954;2024-03-22T00:56:37;9.82;;;6.03;;
79644;SDS011;69117;47.148;18.954;2024-03-22T00:59:38;12.95;;;6.40;;
79644;SDS011;69117;47.148;18.954;2024-03-22T01:02:39;16.60;;;5.22;;
79644;SDS011;69117;47.148;18.954;2024-03-22T01:05:39;13.48;;;5.75;;
79644;SDS011;69117;47.148;18.954;2024-03-22T01:08:42;17.10;;;5.82;;
79644;SDS011;69117;47.148;18.954;2024-03-22T01:11:43;10.52;;;5.40;;
79644;SDS011;69117;47.148;18.954;2024-03-22T01:14:43;9.52;;;5.00;;
79644;SDS011;69117;47.148;18.954;2024-03-22T01:17:44;12.65;;;5.90;;
79644;SDS011;69117;47.148;18.954;2024-03-22T01:20:45;9.90;;;4.60;;
79644;SDS011;69117;47.148;18.954;2024-03-22T01:23:46;11.05;;;5.15;;
79644;SDS011;69117;47.148;18.954;2024-03-22T01:26:47;11.98;;;6.35;;
79644;SDS011;69117;47.148;18.954;2024-03-22T01:29:47;15.00;;;5.35;;
79644;SDS011;69117;47.148;18.954;2024-03-22T01:32:48;11.02;;;4.30;;
79644;SDS011;69117;47.148;18.954;2024-03-22T01:35:49;11.13;;;4.82;;
79644;SDS011;69117;47.148;18.954;2024-03-22T01:38:49;11.52;;;5.82;;
79644;SDS011;69117;47.148;18.954;2024-03-22T01:41:50;12.48;;;5.45;;
79644;SDS011;69117;47.148;18.954;2024-03-22T01:44:51;11.43;;;4.72;;
79644;SDS011;69117;47.148;18.954;2024-03-22T01:47:52;9.18;;;4.15;;
79644;SDS011;69117;47.148;18.954;2024-03-22T01:50:57;9.02;;;3.72;;
79644;SDS011;69117;47.148;18.954;2024-03-22T01:53:58;10.18;;;4.88;;
79644;SDS011;69117;47.148;18.954;2024-03-22T01:57:02;16.00;;;6.25;;
79644;SDS011;69117;47.148;18.954;2024-03-22T02:00:03;17.17;;;5.93;;
79644;SDS011;69117;47.148;18.954;2024-03-22T02:03:04;10.60;;;5.18;;
79644;SDS011;69117;47.148;18.954;2024-03-22T02:06:05;11.55;;;5.28;;
79644;SDS011;69117;47.148;18.954;2024-03-22T02:09:06;10.02;;;4.53;;
79644;SDS011;69117;47.148;18.954;2024-03-22T02:12:09;11.68;;;4.25;;
79644;SDS011;69117;47.148;18.954;2024-03-22T02:18:11;12.77;;;6.65;;
79644;SDS011;69117;47.148;18.954;2024-03-22T02:21:12;66.93;;;37.42;;
79644;SDS011;69117;47.148;18.954;2024-03-22T02:24:13;61.58;;;30.45;;
79644;SDS011;69117;47.148;18.954;2024-03-22T02:27:13;30.98;;;19.27;;
79644;SDS011;69117;47.148;18.954;2024-03-22T02:30:14;22.70;;;11.27;;
79644;SDS011;69117;47.148;18.954;2024-03-22T02:33:15;14.52;;;7.20;;
79644;SDS011;69117;47.148;18.954;2024-03-22T02:36:16;6.57;;;4.95;;
79644;SDS011;69117;47.148;18.954;2024-03-22T02:39:17;9.50;;;5.00;;
79644;SDS011;69117;47.148;18.954;2024-03-22T02:42:17;9.23;;;5.00;;
79644;SDS011;69117;47.148;18.954;2024-03-22T02:45:18;7.60;;;4.18;;
79644;SDS011;69117;47.148;18.954;2024-03-22T02:48:19;9.95;;;5.13;;
79644;SDS011;69117;47.148;18.954;2024-03-22T02:51:20;8.88;;;4.95;;
79644;SDS011;69117;47.148;18.954;2024-03-22T02:54:21;10.23;;;4.40;;
79644;SDS011;69117;47.148;18.954;2024-03-22T02:57:21;10.57;;;6.15;;
79644;SDS011;69117;47.148;18.954;2024-03-22T03:00:22;9.05;;;5.35;;
79644;SDS011;69117;47.148;18.954;2024-03-22T03:03:23;11.30;;;4.68;;
79644;SDS011;69117;47.148;18.954;2024-03-22T03:06:24;9.93;;;4.78;;
79644;SDS011;69117;47.148;18.954;2024-03-22T03:09:25;8.98;;;5.68;;
79644;SDS011;69117;47.148;18.954;2024-03-22T03:12:25;8.35;;;4.22;;
79644;SDS011;69117;47.148;18.954;2024-03-22T03:15:26;11.85;;;5.50;;
79644;SDS011;69117;47.148;18.954;2024-03-22T03:18:27;11.82;;;4.90;;
79644;SDS011;69117;47.148;18.954;2024-03-22T03:21:28;11.48;;;4.60;;
79644;SDS011;69117;47.148;18.954;2024-03-22T03:24:28;13.88;;;5.20;;
79644;SDS011;69117;47.148;18.954;2024-03-22T03:27:29;8.85;;;4.30;;
79644;SDS011;69117;47.148;18.954;2024-03-22T03:30:30;13.88;;;5.30;;
79644;SDS011;69117;47.148;18.954;2024-03-22T03:33:31;7.68;;;4.43;;
79644;SDS011;69117;47.148;18.954;2024-03-22T03:36:33;10.25;;;3.83;;
79644;SDS011;69117;47.148;18.954;2024-03-22T03:39:33;8.18;;;4.97;;
79644;SDS011;69117;47.148;18.954;2024-03-22T03:42:34;10.60;;;5.47;;
79644;SDS011;69117;47.148;18.954;2024-03-22T03:45:38;8.65;;;4.30;;
79644;SDS011;69117;47.148;18.954;2024-03-22T03:48:39;8.90;;;4.53;;
79644;SDS011;69117;47.148;18.954;2024-03-22T03:51:39;9.90;;;4.50;;
79644;SDS011;69117;47.148;18.954;2024-03-22T03:54:40;9.18;;;4.47;;
79644;SDS011;69117;47.148;18.954;2024-03-22T03:57:41;7.07;;;4.80;;
79644;SDS011;69117;47.148;18.954;2024-03-22T04:00:41;8.75;;;3.95;;
79644;SDS011;69117;47.148;18.954;2024-03-22T04:03:42;8.02;;;4.22;;
79644;SDS011;69117;47.148;18.954;2024-03-22T04:06:46;6.28;;;3.75;;
79644;SDS011;69117;47.148;18.954;2024-03-22T04:09:46;11.25;;;4.80;;
79644;SDS011;69117;47.148;18.954;2024-03-22T04:12:47;7.88;;;3.92;;
79644;SDS011;69117;47.148;18.954;2024-03-22T04:15:48;5.07;;;3.15;;
79644;SDS011;69117;47.148;18.954;2024-03-22T04:18:49;7.05;;;3.20;;
79644;SDS011;69117;47.148;18.954;2024-03-22T04:21:49;6.45;;;3.63;;
79644;SDS011;69117;47.148;18.954;2024-03-22T04:24:50;10.20;;;4.55;;
79644;SDS011;69117;47.148;18.954;2024-03-22T04:27:51;6.53;;;3.70;;
79644;SDS011;69117;47.148;18.954;2024-03-22T04:34:03;3.95;;;2.38;;
79644;SDS011;69117;47.148;18.954;2024-03-22T04:37:05;7.00;;;3.20;;
79644;SDS011;69117;47.148;18.954;2024-03-22T04:40:07;6.38;;;2.78;;
79644;SDS011;69117;47.148;18.954;2024-03-22T04:43:10;10.13;;;3.88;;
79644;SDS011;69117;47.148;18.954;2024-03-22T04:46:10;6.90;;;4.18;;
79644;SDS011;69117;47.148;18.954;2024-03-22T04:49:11;8.00;;;2.60;;
79644;SDS011;69117;47.148;18.954;2024-03-22T04:52:12;5.90;;;3.15;;
79644;SDS011;69117;47.148;18.954;2024-03-22T04:55:13;5.85;;;3.40;;
79644;SDS011;69117;47.148;18.954;2024-03-22T04:58:17;4.75;;;3.45;;
79644;SDS011;69117;47.148;18.954;2024-03-22T05:01:19;7.82;;;3.65;;
79644;SDS011;69117;47.148;18.954;2024-03-22T05:04:20;6.78;;;3.40;;
79644;SDS011;69117;47.148;18.954;2024-03-22T05:07:21;7.22;;;3.38;;
79644;SDS011;69117;47.148;18.954;2024-03-22T05:10:21;7.53;;;3.20;;
79644;SDS011;69117;47.148;18.954;2024-03-22T05:13:22;7.38;;;3.10;;
79644;SDS011;69117;47.148;18.954;2024-03-22T05:16:24;7.70;;;3.10;;
79644;SDS011;69117;47.148;18.954;2024-03-22T05:19:25;4.50;;;2.80;;
79644;SDS011;69117;47.148;18.954;2024-03-22T05:22:26;3.88;;;2.92;;
79644;SDS011;69117;47.148;18.954;2024-03-22T05:28:28;6.82;;;2.92;;
79644;SDS011;69117;47.148;18.954;2024-03-22T05:31:29;4.68;;;2.38;;
79644;SDS011;69117;47.148;18.954;2024-03-22T05:34:31;4.43;;;2.95;;
79644;SDS011;69117;47.148;18.954;2024-03-22T05:37:31;6.32;;;3.20;;
79644;SDS011;69117;47.148;18.954;2024-03-22T05:40:35;5.97;;;2.97;;
79644;SDS011;69117;47.148;18.954;2024-03-22T05:43:36;3.97;;;2.80;;
79644;SDS011;69117;47.148;18.954;2024-03-22T05:46:37;6.57;;;3.80;;
79644;SDS011;69117;47.148;18.954;2024-03-22T05:49:38;5.78;;;3.38;;
79644;SDS011;69117;47.148;18.954;2024-03-22T05:52:38;6.97;;;3.65;;
79644;SDS011;69117;47.148;18.954;2024-03-22T05:55:39;6.97;;;3.75;;
79644;SDS011;69117;47.148;18.954;2024-03-22T05:58:40;6.50;;;3.35;;
79644;SDS011;69117;47.148;18.954;2024-03-22T06:01:40;5.55;;;3.78;;
79644;SDS011;69117;47.148;18.954;2024-03-22T06:04:41;8.27;;;4.35;;
79644;SDS011;69117;47.148;18.954;2024-03-22T06:10:44;8.00;;;4.60;;
79644;SDS011;69117;47.148;18.954;2024-03-22T06:13:45;9.73;;;5.80;;
79644;SDS011;69117;47.148;18.954;2024-03-22T06:16:46;7.93;;;4.80;;
79644;SDS011;69117;47.148;18.954;2024-03-22T06:19:47;7.70;;;4.43;;
79644;SDS011;69117;47.148;18.954;2024-03-22T06:22:47;7.55;;;4.88;;
79644;SDS011;69117;47.148;18.954;2024-03-22T06:25:54;8.48;;;4.43;;
79644;SDS011;69117;47.148;18.954;2024-03-22T06:28:55;7.28;;;4.72;;
79644;SDS011;69117;47.148;18.954;2024-03-22T06:31:56;11.15;;;5.47;;
79644;SDS011;69117;47.148;18.954;2024-03-22T06:34:57;9.15;;;5.25;;
79644;SDS011;69117;47.148;18.954;2024-03-22T06:37:58;8.38;;;4.88;;
79644;SDS011;69117;47.148;18.954;2024-03-22T06:41:02;8.75;;;4.63;;
79644;SDS011;69117;47.148;18.954;2024-03-22T06:44:04;9.00;;;5.03;;
79644;SDS011;69117;47.148;18.954;2024-03-22T06:47:05;8.50;;;5.45;;
79644;SDS011;69117;47.148;18.954;2024-03-22T06:50:05;8.05;;;4.50;;
79644;SDS011;69117;47.148;18.954;2024-03-22T06:53:06;9.10;;;4.00;;
79644;SDS011;69117;47.148;18.954;2024-03-22T06:56:07;7.13;;;3.78;;
79644;SDS011;69117;47.148;18.954;2024-03-22T06:59:12;9.50;;;5.47;;
79644;SDS011;69117;47.148;18.954;2024-03-22T07:02:12;9.30;;;5.57;;
79644;SDS011;69117;47.148;18.954;2024-03-22T07:05:14;14.02;;;4.57;;
79644;SDS011;69117;47.148;18.954;2024-03-22T07:08:15;7.70;;;3.63;;
79644;SDS011;69117;47.148;18.954;2024-03-22T07:11:15;9.63;;;4.68;;
79644;SDS011;69117;47.148;18.954;2024-03-22T07:14:16;9.88;;;5.90;;
79644;SDS011;69117;47.148;18.954;2024-03-22T07:17:17;11.40;;;4.75;;
79644;SDS011;69117;47.148;18.954;2024-03-22T07:20:20;10.48;;;5.25;;
79644;SDS011;69117;47.148;18.954;2024-03-22T07:23:21;8.88;;;5.65;;
79644;SDS011;69117;47.148;18.954;2024-03-22T07:26:22;5.80;;;3.25;;
79644;SDS011;69117;47.148;18.954;2024-03-22T07:29:23;9.45;;;4.22;;
79644;SDS011;69117;47.148;18.954;2024-03-22T07:32:23;11.63;;;6.03;;
79644;SDS011;69117;47.148;18.954;2024-03-22T07:35:24;8.40;;;5.10;;
79644;SDS011;69117;47.148;18.954;2024-03-22T07:38:25;9.68;;;5.15;;
79644;SDS011;69117;47.148;18.954;2024-03-22T07:41:26;8.90;;;5.38;;
79644;SDS011;69117;47.148;18.954;2024-03-22T07:44:27;10.07;;;5.93;;
79644;SDS011;69117;47.148;18.954;2024-03-22T07:47:29;9.63;;;4.68;;
79644;SDS011;69117;47.148;18.954;2024-03-22T07:50:29;8.43;;;5.25;;
79644;SDS011;69117;47.148;18.954;2024-03-22T07:53:30;11.23;;;6.32;;
79644;SDS011;69117;47.148;18.954;2024-03-22T07:56:31;10.93;;;5.90;;
79644;SDS011;69117;47.148;18.954;2024-03-22T07:59:32;14.63;;;6.28;;
79644;SDS011;69117;47.148;18.954;2024-03-22T08:02:33;5.88;;;3.92;;
79644;SDS011;69117;47.148;18.954;2024-03-22T08:05:33;9.77;;;5.78;;
79644;SDS011;69117;47.148;18.954;2024-03-22T08:08:34;13.35;;;6.45;;
79644;SDS011;69117;47.148;18.954;2024-03-22T08:11:35;8.90;;;4.90;;
79644;SDS011;69117;47.148;18.954;2024-03-22T08:14:35;10.27;;;4.70;;
79644;SDS011;69117;47.148;18.954;2024-03-22T08:17:36;9.77;;;5.70;;
79644;SDS011;69117;47.148;18.954;2024-03-22T08:20:37;12.77;;;6.55;;
79644;SDS011;69117;47.148;18.954;2024-03-22T08:23:39;12.85;;;5.45;;
79644;SDS011;69117;47.148;18.954;2024-03-22T08:26:39;12.70;;;5.72;;
79644;SDS011;69117;47.148;18.954;2024-03-22T08:29:40;11.93;;;6.07;;
79644;SDS011;69117;47.148;18.954;2024-03-22T08:32:41;12.98;;;5.65;;
79644;SDS011;69117;47.148;18.954;2024-03-22T08:35:42;8.00;;;6.03;;
79644;SDS011;69117;47.148;18.954;2024-03-22T08:38:42;12.00;;;6.30;;
79644;SDS011;69117;47.148;18.954;2024-03-22T08:41:48;13.70;;;6.47;;
79644;SDS011;69117;47.148;18.954;2024-03-22T08:44:49;10.48;;;6.75;;
79644;SDS011;69117;47.148;18.954;2024-03-22T08:47:49;9.90;;;5.85;;
79644;SDS011;69117;47.148;18.954;2024-03-22T08:50:50;7.07;;;5.38;;
79644;SDS011;69117;47.148;18.954;2024-03-22T08:53:51;12.73;;;6.70;;
79644;SDS011;69117;47.148;18.954;2024-03-22T08:56:52;13.23;;;6.78;;
79644;SDS011;69117;47.148;18.954;2024-03-22T08:59:52;14.80;;;7.68;;
79644;SDS011;69117;47.148;18.954;2024-03-22T09:02:53;13.77;;;7.40;;
79644;SDS011;69117;47.148;18.954;2024-03-22T09:05:54;18.23;;;7.95;;
79644;SDS011;69117;47.148;18.954;2024-03-22T09:08:54;12.10;;;6.10;;
79644;SDS011;69117;47.148;18.954;2024-03-22T09:11:58;12.40;;;6.57;;
79644;SDS011;69117;47.148;18.954;2024-03-22T09:14:58;11.25;;;5.93;;
79644;SDS011;69117;47.148;18.954;2024-03-22T09:17:59;10.05;;;5.63;;
79644;SDS011;69117;47.148;18.954;2024-03-22T09:21:00;13.32;;;6.82;;
79644;SDS011;69117;47.148;18.954;2024-03-22T09:24:00;13.57;;;7.32;;
79644;SDS011;69117;47.148;18.954;2024-03-22T09:27:03;10.10;;;5.60;;
79644;SDS011;69117;47.148;18.954;2024-03-22T09:30:09;12.93;;;5.53;;
79644;SDS011;69117;47.148;18.954;2024-03-22T09:33:10;12.85;;;4.88;;
79644;SDS011;69117;47.148;18.954;2024-03-22T09:39:11;11.82;;;5.82;;
79644;SDS011;69117;47.148;18.954;2024-03-22T09:42:16;13.77;;;6.30;;
79644;SDS011;69117;47.148;18.954;2024-03-22T09:45:20;13.18;;;7.15;;
79644;SDS011;69117;47.148;18.954;2024-03-22T09:48:21;10.63;;;5.72;;
79644;SDS011;69117;47.148;18.954;2024-03-22T09:51:23;13.27;;;6.90;;
79644;SDS011;69117;47.148;18.954;2024-03-22T09:57:25;17.05;;;8.43;;
79644;SDS011;69117;47.148;18.954;2024-03-22T10:00:26;9.60;;;6.50;;
79644;SDS011;69117;47.148;18.954;2024-03-22T10:03:27;12.75;;;6.60;;
79644;SDS011;69117;47.148;18.954;2024-03-22T10:09:32;11.75;;;6.93;;
79644;SDS011;69117;47.148;18.954;2024-03-22T10:15:33;17.85;;;8.60;;
79644;SDS011;69117;47.148;18.954;2024-03-22T10:18:34;13.55;;;6.78;;
79644;SDS011;69117;47.148;18.954;2024-03-22T10:21:35;11.13;;;7.00;;
79644;SDS011;69117;47.148;18.954;2024-03-22T10:27:39;13.27;;;6.80;;
79644;SDS011;69117;47.148;18.954;2024-03-22T10:30:41;8.85;;;5.28;;
79644;SDS011;69117;47.148;18.954;2024-03-22T10:33:46;13.93;;;6.63;;
79644;SDS011;69117;47.148;18.954;2024-03-22T10:36:48;11.73;;;6.68;;
79644;SDS011;69117;47.148;18.954;2024-03-22T10:39:50;9.90;;;7.38;;
79644;SDS011;69117;47.148;18.954;2024-03-22T10:42:53;11.90;;;6.65;;
79644;SDS011;69117;47.148;18.954;2024-03-22T10:48:57;10.57;;;5.88;;
79644;SDS011;69117;47.148;18.954;2024-03-22T10:51:58;12.20;;;6.68;;
79644;SDS011;69117;47.148;18.954;2024-03-22T10:55:02;10.63;;;7.05;;
79644;SDS011;69117;47.148;18.954;2024-03-22T10:58:06;11.60;;;6.47;;
79644;SDS011;69117;47.148;18.954;2024-03-22T11:01:10;5.32;;;3.97;;
79644;SDS011;69117;47.148;18.954;2024-03-22T11:04:29;9.07;;;5.40;;
79644;SDS011;69117;47.148;18.954;2024-03-22T11:07:30;9.15;;;5.78;;
79644;SDS011;69117;47.148;18.954;2024-03-22T11:13:36;7.95;;;5.65;;
79644;SDS011;69117;47.148;18.954;2024-03-22T11:16:37;10.45;;;5.90;;
79644;SDS011;69117;47.148;18.954;2024-03-22T11:19:37;8.60;;;5.30;;
79644;SDS011;69117;47.148;18.954;2024-03-22T11:22:39;8.20;;;5.35;;
79644;SDS011;69117;47.148;18.954;2024-03-22T11:25:39;9.88;;;5.35;;
79644;SDS011;69117;47.148;18.954;2024-03-22T11:28:41;11.20;;;5.35;;
79644;SDS011;69117;47.148;18.954;2024-03-22T11:31:43;9.65;;;5.57;;
79644;SDS011;69117;47.148;18.954;2024-03-22T11:34:44;10.88;;;5.72;;
79644;SDS011;69117;47.148;18.954;2024-03-22T11:37:46;9.02;;;5.00;;
79644;SDS011;69117;47.148;18.954;2024-03-22T11:40:47;11.98;;;4.68;;
79644;SDS011;69117;47.148;18.954;2024-03-22T11:43:48;8.18;;;5.15;;
79644;SDS011;69117;47.148;18.954;2024-03-22T11:46:51;8.13;;;4.40;;
79644;SDS011;69117;47.148;18.954;2024-03-22T11:49:53;7.78;;;4.63;;
79644;SDS011;69117;47.148;18.954;2024-03-22T11:52:54;8.57;;;4.13;;
79644;SDS011;69117;47.148;18.954;2024-03-22T11:55:57;5.20;;;3.22;;
79644;SDS011;69117;47.148;18.954;2024-03-22T11:58:58;7.05;;;4.15;;
79644;SDS011;69117;47.148;18.954;2024-03-22T12:01:59;5.90;;;3.15;;
79644;SDS011;69117;47.148;18.954;2024-03-22T12:08:00;5.35;;;3.13;;
79644;SDS011;69117;47.148;18.954;2024-03-22T12:11:02;5.63;;;3.50;;
79644;SDS011;69117;47.148;18.954;2024-03-22T12:17:04;4.43;;;2.00;;
79644;SDS011;69117;47.148;18.954;2024-03-22T12:20:06;4.05;;;1.67;;
79644;SDS011;69117;47.148;18.954;2024-03-22T12:23:08;3.15;;;1.77;;
79644;SDS011;69117;47.148;18.954;2024-03-22T12:29:10;2.53;;;1.70;;
79644;SDS011;69117;47.148;18.954;2024-03-22T12:32:11;9.40;;;1.60;;
79644;SDS011;69117;47.148;18.954;2024-03-22T12:35:11;4.47;;;1.67;;
79644;SDS011;69117;47.148;18.954;2024-03-22T12:38:12;2.70;;;1.98;;
79644;SDS011;69117;47.148;18.954;2024-03-22T12:41:14;2.88;;;1.67;;
79644;SDS011;69117;47.148;18.954;2024-03-22T12:44:14;5.63;;;3.08;;
79644;SDS011;69117;47.148;18.954;2024-03-22T12:47:15;4.38;;;2.22;;
79644;SDS011;69117;47.148;18.954;2024-03-22T12:50:16;3.42;;;2.15;;
79644;SDS011;69117;47.148;18.954;2024-03-22T12:53:16;4.70;;;2.05;;
79644;SDS011;69117;47.148;18.954;2024-03-22T12:56:17;5.22;;;3.03;;
79644;SDS011;69117;47.148;18.954;2024-03-22T12:59:18;6.70;;;3.22;;
79644;SDS011;69117;47.148;18.954;2024-03-22T13:02:19;5.97;;;3.30;;
79644;SDS011;69117;47.148;18.954;2024-03-22T13:05:19;6.22;;;2.88;;
79644;SDS011;69117;47.148;18.954;2024-03-22T13:08:20;6.13;;;3.35;;
79644;SDS011;69117;47.148;18.954;2024-03-22T13:11:21;4.30;;;3.08;;
79644;SDS011;69117;47.148;18.954;2024-03-22T13:17:22;6.15;;;3.15;;
79644;SDS011;69117;47.148;18.954;2024-03-22T13:20:24;5.00;;;2.88;;
79644;SDS011;69117;47.148;18.954;2024-03-22T13:23:24;4.70;;;2.55;;
79644;SDS011;69117;47.148;18.954;2024-03-22T13:26:25;5.63;;;3.47;;
79644;SDS011;69117;47.148;18.954;2024-03-22T13:29:26;5.43;;;3.20;;
79644;SDS011;69117;47.148;18.954;2024-03-22T13:32:27;5.10;;;3.08;;
79644;SDS011;69117;47.148;18.954;2024-03-22T13:35:27;5.32;;;3.20;;
79644;SDS011;69117;47.148;18.954;2024-03-22T13:38:28;5.53;;;2.92;;
79644;SDS011;69117;47.148;18.954;2024-03-22T13:41:29;4.30;;;2.00;;
79644;SDS011;69117;47.148;18.954;2024-03-22T13:44:32;3.97;;;2.15;;
79644;SDS011;69117;47.148;18.954;2024-03-22T13:47:33;4.63;;;2.92;;
79644;SDS011;69117;47.148;18.954;2024-03-22T13:50:34;5.85;;;2.25;;
79644;SDS011;69117;47.148;18.954;2024-03-22T13:53:35;5.85;;;2.42;;
79644;SDS011;69117;47.148;18.954;2024-03-22T13:56:37;5.57;;;3.10;;
79644;SDS011;69117;47.148;18.954;2024-03-22T13:59:40;7.55;;;4.25;;
79644;SDS011;69117;47.148;18.954;2024-03-22T14:02:42;100.20;;;37.70;;
79644;SDS011;69117;47.148;18.954;2024-03-22T14:05:45;21.75;;;12.40;;
79644;SDS011;69117;47.148;18.954;2024-03-22T14:08:46;3.22;;;2.25;;
79644;SDS011;69117;47.148;18.954;2024-03-22T14:11:46;4.63;;;2.47;;
79644;SDS011;69117;47.148;18.954;2024-03-22T14:14:48;8.32;;;4.22;;
79644;SDS011;69117;47.148;18.954;2024-03-22T14:17:49;3.88;;;2.70;;
79644;SDS011;69117;47.148;18.954;2024-03-22T14:20:50;7.88;;;3.80;;
79644;SDS011;69117;47.148;18.954;2024-03-22T14:23:50;7.60;;;4.10;;
79644;SDS011;69117;47.148;18.954;2024-03-22T14:26:51;5.65;;;3.05;;
79644;SDS011;69117;47.148;18.954;2024-03-22T14:32:52;6.40;;;3.78;;
79644;SDS011;69117;47.148;18.954;2024-03-22T14:35:53;13.30;;;4.03;;
79644;SDS011;69117;47.148;18.954;2024-03-22T14:38:54;10.45;;;4.25;;
79644;SDS011;69117;47.148;18.954;2024-03-22T14:41:54;6.22;;;3.10;;
79644;SDS011;69117;47.148;18.954;2024-03-22T14:44:55;5.05;;;3.15;;
79644;SDS011;69117;47.148;18.954;2024-03-22T14:47:56;7.05;;;3.83;;
79644;SDS011;69117;47.148;18.954;2024-03-22T14:50:57;7.47;;;4.03;;
79644;SDS011;69117;47.148;18.954;2024-03-22T14:53:58;3.97;;;2.70;;
79644;SDS011;69117;47.148;18.954;2024-03-22T14:56:59;7.47;;;3.67;;
79644;SDS011;69117;47.148;18.954;2024-03-22T15:00:00;8.32;;;2.70;;
79644;SDS011;69117;47.148;18.954;2024-03-22T15:03:00;5.65;;;2.78;;
79644;SDS011;69117;47.148;18.954;2024-03-22T15:06:02;4.07;;;2.60;;
79644;SDS011;69117;47.148;18.954;2024-03-22T15:09:03;7.03;;;4.13;;
79644;SDS011;69117;47.148;18.954;2024-03-22T15:12:10;5.88;;;3.25;;
79644;SDS011;69117;47.148;18.954;2024-03-22T15:18:11;6.30;;;2.15;;
79644;SDS011;69117;47.148;18.954;2024-03-22T15:24:12;4.40;;;2.30;;
79644;SDS011;69117;47.148;18.954;2024-03-22T15:27:14;3.20;;;2.03;;
79644;SDS011;69117;47.148;18.954;2024-03-22T15:33:15;3.38;;;1.52;;
79644;SDS011;69117;47.148;18.954;2024-03-22T15:36:17;7.38;;;2.92;;
79644;SDS011;69117;47.148;18.954;2024-03-22T15:42:19;3.25;;;2.28;;
79644;SDS011;69117;47.148;18.954;2024-03-22T15:48:20;5.95;;;2.05;;
79644;SDS011;69117;47.148;18.954;2024-03-22T15:51:22;6.43;;;2.47;;
79644;SDS011;69117;47.148;18.954;2024-03-22T15:54:23;4.25;;;2.30;;
79644;SDS011;69117;47.148;18.954;2024-03-22T16:00:25;5.93;;;3.03;;
79644;SDS011;69117;47.148;18.954;2024-03-22T16:03:26;6.75;;;3.55;;
79644;SDS011;69117;47.148;18.954;2024-03-22T16:09:28;9.10;;;4.88;;
79644;SDS011;69117;47.148;18.954;2024-03-22T16:15:29;8.00;;;3.97;;
79644;SDS011;69117;47.148;18.954;2024-03-22T16:21:32;5.28;;;2.28;;
79644;SDS011;69117;47.148;18.954;2024-03-22T16:27:34;4.32;;;2.40;;
79644;SDS011;69117;47.148;18.954;2024-03-22T16:30:35;2.92;;;1.92;;
79644;SDS011;69117;47.148;18.954;2024-03-22T16:36:36;4.32;;;2.63;;
79644;SDS011;69117;47.148;18.954;2024-03-22T16:39:37;10.98;;;3.38;;
79644;SDS011;69117;47.148;18.954;2024-03-22T16:45:46;8.70;;;3.20;;
79644;SDS011;69117;47.148;18.954;2024-03-22T16:51:47;9.50;;;4.13;;
79644;SDS011;69117;47.148;18.954;2024-03-22T16:57:49;7.28;;;3.58;;
79644;SDS011;69117;47.148;18.954;2024-03-22T17:00:50;6.15;;;3.35;;
79644;SDS011;69117;47.148;18.954;2024-03-22T17:03:51;8.40;;;4.53;;
79644;SDS011;69117;47.148;18.954;2024-03-22T17:06:53;7.85;;;3.75;;
79644;SDS011;69117;47.148;18.954;2024-03-22T17:09:54;9.35;;;4.43;;
79644;SDS011;69117;47.148;18.954;2024-03-22T17:15:55;14.68;;;5.55;;
79644;SDS011;69117;47.148;18.954;2024-03-22T17:18:57;11.02;;;5.18;;
79644;SDS011;69117;47.148;18.954;2024-03-22T17:21:58;7.95;;;5.32;;
79644;SDS011;69117;47.148;18.954;2024-03-22T17:24:59;15.77;;;8.05;;
79644;SDS011;69117;47.148;18.954;2024-03-22T17:28:02;25.08;;;12.68;;
79644;SDS011;69117;47.148;18.954;2024-03-22T17:31:04;24.75;;;11.63;;
79644;SDS011;69117;47.148;18.954;2024-03-22T17:34:04;18.08;;;8.18;;
79644;SDS011;69117;47.148;18.954;2024-03-22T17:37:07;18.75;;;7.97;;
79644;SDS011;69117;47.148;18.954;2024-03-22T17:40:08;12.07;;;7.45;;
79644;SDS011;69117;47.148;18.954;2024-03-22T17:43:10;14.63;;;5.97;;
79644;SDS011;69117;47.148;18.954;2024-03-22T17:46:11;10.15;;;5.32;;
79644;SDS011;69117;47.148;18.954;2024-03-22T17:49:11;14.10;;;5.82;;
79644;SDS011;69117;47.148;18.954;2024-03-22T17:52:13;15.32;;;6.45;;
79644;SDS011;69117;47.148;18.954;2024-03-22T17:55:14;20.40;;;8.60;;
79644;SDS011;69117;47.148;18.954;2024-03-22T17:58:16;19.38;;;7.95;;
79644;SDS011;69117;47.148;18.954;2024-03-22T18:01:17;15.85;;;7.03;;
79644;SDS011;69117;47.148;18.954;2024-03-22T18:04:17;15.77;;;8.73;;
79644;SDS011;69117;47.148;18.954;2024-03-22T18:07:18;14.98;;;9.40;;
79644;SDS011;69117;47.148;18.954;2024-03-22T18:10:19;31.75;;;15.00;;
79644;SDS011;69117;47.148;18.954;2024-03-22T18:13:20;20.23;;;10.85;;
79644;SDS011;69117;47.148;18.954;2024-03-22T18:16:20;28.30;;;14.48;;
79644;SDS011;69117;47.148;18.954;2024-03-22T18:19:21;65.47;;;29.48;;
79644;SDS011;69117;47.148;18.954;2024-03-22T18:22:22;42.97;;;20.45;;
79644;SDS011;69117;47.148;18.954;2024-03-22T18:25:22;60.55;;;28.55;;
79644;SDS011;69117;47.148;18.954;2024-03-22T18:28:24;107.63;;;44.05;;
79644;SDS011;69117;47.148;18.954;2024-03-22T18:31:25;74.15;;;29.40;;
79644;SDS011;69117;47.148;18.954;2024-03-22T18:34:26;55.97;;;25.77;;
79644;SDS011;69117;47.148;18.954;2024-03-22T18:37:27;74.43;;;31.17;;
79644;SDS011;69117;47.148;18.954;2024-03-22T18:40:28;66.57;;;28.65;;
79644;SDS011;69117;47.148;18.954;2024-03-22T18:43:29;91.03;;;35.40;;
79644;SDS011;69117;47.148;18.954;2024-03-22T18:46:33;76.85;;;34.10;;
79644;SDS011;69117;47.148;18.954;2024-03-22T18:49:34;86.35;;;37.00;;
79644;SDS011;69117;47.148;18.954;2024-03-22T18:52:35;56.58;;;28.30;;
79644;SDS011;69117;47.148;18.954;2024-03-22T18:55:38;61.90;;;28.75;;
79644;SDS011;69117;47.148;18.954;2024-03-22T18:58:39;55.10;;;24.25;;
79644;SDS011;69117;47.148;18.954;2024-03-22T19:01:41;49.35;;;24.75;;
79644;SDS011;69117;47.148;18.954;2024-03-22T19:04:43;59.00;;;24.98;;
79644;SDS011;69117;47.148;18.954;2024-03-22T19:07:45;61.78;;;27.00;;
79644;SDS011;69117;47.148;18.954;2024-03-22T19:10:47;74.90;;;29.15;;
79644;SDS011;69117;47.148;18.954;2024-03-22T19:16:49;47.40;;;20.75;;
79644;SDS011;69117;47.148;18.954;2024-03-22T19:22:53;32.15;;;15.48;;
79644;SDS011;69117;47.148;18.954;2024-03-22T19:25:54;30.67;;;16.33;;
79644;SDS011;69117;47.148;18.954;2024-03-22T19:28:55;29.05;;;14.30;;